createdAt,value
2019-03-02T00:04:17.860Z,3.90
2019-03-02T00:09:21.537Z,3.90
2019-03-02T00:14:25.209Z,3.90
2019-03-02T00:19:28.877Z,4.00
2019-03-02T00:24:32.566Z,4.00
2019-03-02T00:29:36.241Z,4.00
2019-03-02T00:34:39.933Z,4.00
2019-03-02T00:39:43.618Z,4.00
2019-03-02T00:44:47.301Z,4.00
2019-03-02T00:49:50.984Z,4.00
2019-03-02T00:54:58.085Z,3.90
2019-03-02T01:00:00.091Z,4.00
2019-03-02T01:05:04.525Z,4.00
2019-03-02T01:10:10.514Z,4.00
2019-03-02T01:15:14.360Z,4.00
2019-03-02T01:20:18.124Z,4.00
2019-03-02T01:25:21.801Z,4.00
2019-03-02T01:30:26.703Z,4.00
2019-03-02T01:35:30.913Z,4.00
2019-03-02T01:40:37.850Z,3.90
2019-03-02T01:45:40.085Z,3.90
2019-03-02T01:50:47.364Z,3.90
2019-03-02T01:55:49.191Z,3.90
2019-03-02T02:00:52.869Z,3.90
2019-03-02T02:05:56.565Z,3.90
2019-03-02T02:11:00.237Z,3.80
2019-03-02T02:16:05.752Z,3.80
2019-03-02T02:21:09.440Z,3.80
2019-03-02T02:26:13.105Z,3.80
2019-03-02T02:31:16.766Z,3.80
2019-03-02T02:36:20.527Z,3.80
2019-03-02T02:41:25.061Z,3.80
2019-03-02T02:46:32.631Z,3.80
2019-03-02T02:51:34.306Z,3.80
2019-03-02T02:56:37.957Z,3.80
2019-03-02T03:01:41.616Z,3.80
2019-03-02T03:06:45.273Z,3.80
2019-03-02T03:11:49.004Z,3.80
2019-03-02T03:16:54.203Z,3.80
2019-03-02T03:22:02.199Z,3.80
2019-03-02T03:27:03.753Z,3.80
2019-03-02T03:32:09.351Z,3.70
2019-03-02T03:37:14.688Z,3.70
2019-03-02T03:42:23.090Z,3.80
2019-03-02T03:47:23.643Z,3.80
2019-03-02T03:52:27.307Z,3.70
2019-03-02T03:57:31.247Z,3.70
2019-03-02T04:02:35.693Z,3.70
2019-03-02T04:07:48.940Z,3.70
2019-03-02T04:12:46.007Z,3.70
2019-03-02T04:17:49.663Z,3.70
2019-03-02T04:22:53.857Z,3.70
2019-03-02T04:27:57.831Z,3.70
2019-03-02T04:33:05.554Z,3.70
2019-03-02T04:38:06.955Z,3.70
2019-03-02T04:43:10.603Z,3.70
2019-03-02T04:48:14.946Z,3.70
2019-03-02T04:53:21.492Z,3.70
2019-03-02T04:58:24.009Z,3.70
2019-03-02T05:03:27.657Z,3.60
2019-03-02T05:08:31.326Z,3.70
2019-03-02T05:13:35.273Z,3.60
2019-03-02T05:18:38.938Z,3.70
2019-03-02T05:23:42.581Z,3.60
2019-03-02T05:28:46.233Z,3.60
2019-03-02T05:33:49.885Z,3.60
2019-03-02T05:38:53.613Z,3.60
2019-03-02T05:43:57.489Z,3.60
2019-03-02T05:49:01.196Z,3.50
2019-03-02T05:54:06.402Z,3.50
2019-03-02T05:59:10.225Z,3.50
2019-03-02T06:04:14.233Z,3.50
2019-03-02T06:09:17.952Z,3.50
2019-03-02T06:14:21.609Z,3.50
2019-03-02T06:19:25.263Z,3.50
2019-03-02T06:24:29.225Z,3.50
2019-03-02T06:29:33.591Z,3.50
2019-03-02T06:34:37.413Z,3.50
2019-03-02T06:39:44.387Z,3.60
2019-03-02T06:44:46.544Z,3.60
2019-03-02T06:49:53.291Z,3.60
2019-03-02T06:54:56.298Z,3.70
2019-03-02T07:00:00.043Z,3.70
2019-03-02T07:05:03.903Z,3.80
2019-03-02T07:10:12.441Z,3.80
2019-03-02T07:15:16.327Z,3.90
2019-03-02T07:20:23.843Z,3.90
2019-03-02T07:25:27.784Z,4.00
2019-03-02T07:30:31.438Z,4.00
2019-03-02T07:35:35.358Z,4.10
2019-03-02T07:40:41.217Z,4.10
2019-03-02T07:45:44.762Z,4.20
2019-03-02T07:50:48.424Z,4.20
2019-03-02T07:55:53.629Z,4.20
2019-03-02T08:00:57.833Z,4.30
2019-03-02T08:06:01.604Z,4.30
2019-03-02T08:11:05.268Z,4.40
2019-03-02T08:16:09.605Z,4.40
2019-03-02T08:21:14.220Z,4.50
2019-03-02T08:26:18.278Z,4.60
2019-03-02T08:31:22.420Z,4.60
2019-03-02T08:36:26.457Z,4.70
2019-03-02T08:41:32.902Z,4.70
2019-03-02T08:46:36.136Z,4.80
2019-03-02T08:51:39.774Z,4.90
2019-03-02T08:56:47.345Z,4.90
2019-03-02T09:01:51.276Z,5.00
2019-03-02T09:06:54.838Z,5.10
2019-03-02T09:11:58.563Z,5.10
2019-03-02T09:17:02.216Z,5.20
2019-03-02T09:22:05.984Z,5.20
2019-03-02T09:27:09.883Z,5.20
2019-03-02T09:32:14.155Z,5.30
2019-03-02T09:37:18.926Z,5.30
2019-03-02T09:42:22.607Z,5.40
2019-03-02T09:47:26.401Z,5.40
2019-03-02T09:52:30.361Z,5.50
2019-03-02T09:57:34.024Z,5.50
2019-03-02T10:02:39.236Z,5.50
2019-03-02T10:07:42.982Z,5.60
2019-03-02T10:12:47.160Z,5.60
2019-03-02T10:17:52.139Z,5.70
2019-03-02T10:22:55.893Z,5.70
2019-03-02T10:27:59.584Z,5.80
2019-03-02T10:33:03.241Z,5.90
2019-03-02T10:38:06.939Z,5.90
2019-03-02T10:43:11.753Z,5.90
2019-03-02T10:48:15.653Z,6.00
2019-03-02T10:53:20.794Z,6.00
2019-03-02T10:58:24.701Z,6.00
2019-03-02T11:03:31.686Z,6.00
2019-03-02T11:09:03.891Z,6.10
2019-03-02T11:14:19.761Z,6.10
2019-03-02T11:19:43.772Z,6.10
2019-03-02T11:25:01.109Z,6.10
2019-03-02T11:30:23.846Z,6.10
2019-03-02T11:35:33.529Z,6.10
2019-03-02T11:40:45.749Z,6.10
2019-03-02T11:46:01.258Z,6.10
2019-03-02T11:51:42.657Z,6.20
2019-03-02T11:56:57.086Z,6.20
2019-03-02T12:02:29.226Z,6.20
2019-03-02T12:08:04.290Z,6.30
2019-03-02T12:13:27.774Z,6.30
2019-03-02T12:18:51.052Z,6.30
2019-03-02T12:24:14.564Z,6.40
2019-03-02T12:29:20.394Z,6.40
2019-03-02T12:34:39.010Z,6.40
2019-03-02T12:40:02.989Z,6.40
2019-03-02T12:45:14.874Z,6.40
2019-03-02T12:50:37.987Z,6.40
2019-03-02T12:55:57.736Z,6.40
2019-03-02T13:01:10.489Z,6.40
2019-03-02T13:06:19.628Z,6.50
2019-03-02T13:11:36.877Z,6.50
2019-03-02T13:16:59.281Z,6.50
2019-03-02T13:22:13.038Z,6.50
2019-03-02T13:27:27.601Z,6.50
2019-03-02T13:32:47.680Z,6.50
2019-03-02T13:38:16.884Z,6.50
2019-03-02T13:43:39.082Z,6.50
2019-03-02T13:49:07.912Z,6.50
2019-03-02T13:54:29.748Z,6.50
2019-03-02T13:59:41.515Z,6.50
2019-03-02T14:05:07.182Z,6.50
2019-03-02T14:10:30.598Z,6.50
2019-03-02T14:15:55.388Z,6.50
2019-03-02T14:21:17.474Z,6.50
2019-03-02T14:26:37.017Z,6.60
2019-03-02T14:32:00.375Z,6.50
2019-03-02T14:37:14.583Z,6.50
2019-03-02T14:42:27.274Z,6.50
2019-03-02T14:47:50.049Z,6.50
2019-03-02T14:53:10.085Z,6.50
2019-03-02T14:58:40.594Z,6.50
2019-03-02T15:04:07.650Z,6.50
2019-03-02T15:09:23.698Z,6.50
2019-03-02T15:14:45.805Z,6.50
2019-03-02T15:20:12.582Z,6.50
2019-03-02T15:25:22.048Z,6.50
2019-03-02T15:30:59.123Z,6.50
2019-03-02T15:36:20.504Z,6.40
2019-03-02T15:41:31.087Z,6.40
2019-03-02T15:47:10.057Z,6.40
2019-03-02T15:52:22.745Z,6.40
2019-03-02T15:57:43.932Z,6.30
2019-03-02T16:02:56.931Z,6.30
2019-03-02T16:08:07.149Z,6.30
2019-03-02T16:13:37.225Z,6.20
2019-03-02T16:18:58.993Z,6.20
2019-03-02T16:24:35.228Z,6.20
2019-03-02T16:29:55.919Z,6.20
2019-03-02T16:35:15.582Z,6.20
2019-03-02T16:40:38.457Z,6.20
2019-03-02T16:46:04.861Z,6.20
2019-03-02T16:51:30.543Z,6.20
2019-03-02T16:56:53.951Z,6.20
2019-03-02T17:02:11.398Z,6.20
2019-03-02T17:07:23.484Z,6.10
2019-03-02T17:13:06.697Z,6.10
2019-03-02T17:18:26.470Z,6.10
2019-03-02T17:23:48.949Z,6.00
2019-03-02T17:29:30.685Z,6.00
2019-03-02T17:34:50.409Z,6.00
2019-03-02T17:40:13.396Z,5.90
2019-03-02T17:45:48.829Z,5.90
2019-03-02T17:51:02.947Z,5.90
2019-03-02T17:56:19.025Z,5.80
2019-03-02T18:01:33.586Z,5.80
2019-03-02T18:07:00.474Z,5.80
2019-03-02T18:12:23.392Z,5.70
2019-03-02T18:17:37.418Z,5.70
2019-03-02T18:22:42.982Z,5.70
2019-03-02T18:27:46.662Z,5.70
2019-03-02T18:32:52.675Z,5.70
2019-03-02T18:37:58.028Z,5.70
2019-03-02T18:43:04.075Z,5.60
2019-03-02T18:48:14.308Z,5.60
2019-03-02T18:53:18.608Z,5.50
2019-03-02T18:58:24.111Z,5.50
2019-03-02T19:03:30.189Z,5.40
2019-03-02T19:08:35.131Z,5.30
2019-03-02T19:13:40.680Z,5.20
2019-03-02T19:18:44.677Z,5.10
2019-03-02T19:23:49.049Z,5.00
2019-03-02T19:28:52.908Z,5.00
2019-03-02T19:33:56.817Z,4.90
2019-03-02T19:39:00.494Z,4.80
2019-03-02T19:44:04.457Z,4.80
2019-03-02T19:49:08.154Z,4.70
2019-03-02T19:54:12.137Z,4.70
2019-03-02T19:59:15.805Z,4.70
2019-03-02T20:04:20.257Z,4.70
2019-03-02T20:09:24.583Z,4.70
2019-03-02T20:14:28.868Z,4.70
2019-03-02T20:19:33.230Z,4.70
2019-03-02T20:24:37.484Z,4.60
2019-03-02T20:29:41.197Z,4.60
2019-03-02T20:34:44.881Z,4.70
2019-03-02T20:39:48.626Z,4.60
2019-03-02T20:44:52.409Z,4.60
2019-03-02T20:49:56.174Z,4.60
2019-03-02T20:54:59.926Z,4.60
2019-03-02T21:00:03.929Z,4.50
2019-03-02T21:05:09.607Z,4.50
2019-03-02T21:10:14.724Z,4.40
2019-03-02T21:15:21.736Z,4.40
2019-03-02T21:20:26.024Z,4.40
2019-03-02T21:25:29.696Z,4.30
2019-03-02T21:30:33.434Z,4.30
2019-03-02T21:35:37.080Z,4.30
2019-03-02T21:40:41.047Z,4.20
2019-03-02T21:45:44.701Z,4.20
2019-03-02T21:50:48.477Z,4.20
2019-03-02T21:55:52.214Z,4.30
2019-03-02T22:00:55.873Z,4.30
2019-03-02T22:05:59.522Z,4.30
2019-03-02T22:11:05.790Z,4.40
2019-03-02T22:16:09.456Z,4.40
2019-03-02T22:21:13.134Z,4.50
2019-03-02T22:26:16.791Z,4.50
2019-03-02T22:31:20.473Z,4.50
2019-03-02T22:36:24.142Z,4.60
2019-03-02T22:41:27.876Z,4.60
2019-03-02T22:46:31.570Z,4.60
2019-03-02T22:51:35.229Z,4.70
2019-03-02T22:56:38.869Z,4.70
2019-03-02T23:02:02.525Z,4.80
2019-03-02T23:07:06.312Z,4.80
2019-03-02T23:12:10.013Z,4.90
2019-03-02T23:17:13.662Z,4.90
2019-03-02T23:22:18.402Z,4.90
2019-03-02T23:27:22.264Z,4.90
2019-03-02T23:32:25.944Z,4.90
2019-03-02T23:37:29.613Z,5.00
2019-03-02T23:42:33.290Z,4.90
2019-03-02T23:47:36.931Z,4.90
2019-03-02T23:52:40.667Z,4.90
2019-03-02T23:57:44.477Z,4.90
